Time;durP1;ratioP1;P1;durP2;ratioP2;P2;SDS_P1;SDS_P2;PMS_P1;PMS_P2;Temp;Humidity;BMP_temperature;BMP_pressure;BME280_temperature;BME280_humidity;BME280_pressure;Samples;Min_cycle;Max_cycle;Signal;HPM_P1;HPM_P2
2021/04/05 00:02:23;;;;;;;22.20;11.23;;;;;;;2.62;72.14;100107.00;5082821;28;20037;-71
2021/04/05 00:04:48;;;;;;;19.02;10.98;;;;;;;2.63;71.96;100103.53;5078109;28;20487;-71
2021/04/05 00:07:14;;;;;;;16.95;10.43;;;;;;;2.66;71.95;100096.63;5082524;28;20043;-71
2021/04/05 00:09:40;;;;;;;23.25;11.10;;;;;;;2.65;72.28;100095.75;5082646;28;20116;-70
2021/04/05 00:12:10;;;;;;;23.27;11.68;;;;;;;2.64;71.57;100092.25;5085022;28;20037;-71
2021/04/05 00:14:38;;;;;;;19.13;10.38;;;;;;;2.58;72.29;100094.75;5086072;28;20028;-71
2021/04/05 00:17:04;;;;;;;18.38;10.70;;;;;;;2.59;72.05;100093.94;5083867;28;20115;-71
2021/04/05 00:19:30;;;;;;;19.50;10.63;;;;;;;2.57;72.00;100084.31;5082505;28;20041;-71
2021/04/05 00:21:55;;;;;;;18.83;11.13;;;;;;;2.59;72.04;100077.38;5083210;28;20028;-70
2021/04/05 00:24:20;;;;;;;17.10;10.73;;;;;;;2.60;71.28;100080.03;5085885;28;20040;-70
2021/04/05 00:26:46;;;;;;;19.48;11.10;;;;;;;2.60;71.79;100071.34;5085584;28;20028;-71
2021/04/05 00:29:12;;;;;;;20.05;10.48;;;;;;;2.59;71.49;100056.56;5082693;28;20044;-71
2021/04/05 00:31:38;;;;;;;17.23;10.55;;;;;;;2.55;71.34;100055.63;5082311;28;20495;-71
2021/04/05 00:34:03;;;;;;;16.95;10.02;;;;;;;2.55;71.81;100047.81;5084283;28;20115;-71
2021/04/05 00:36:28;;;;;;;19.45;9.32;;;;;;;2.55;71.61;100046.94;5085349;28;20075;-71
2021/04/05 00:38:54;;;;;;;16.13;10.32;;;;;;;2.54;71.63;100035.66;5084910;28;20124;-71
2021/04/05 00:41:19;;;;;;;20.00;11.07;;;;;;;2.52;70.91;100029.53;5082112;28;20071;-70
2021/04/05 00:43:46;;;;;;;20.13;10.07;;;;;;;2.50;71.70;100026.00;5081692;28;20119;-70
2021/04/05 00:46:13;;;;;;;20.23;10.27;;;;;;;2.49;71.68;100021.66;5084891;28;20417;-70
2021/04/05 00:48:39;;;;;;;22.25;10.57;;;;;;;2.52;71.48;100005.22;5141516;22;20071;-76
2021/04/05 00:51:05;;;;;;;18.65;9.35;;;;;;;2.53;70.86;100002.63;5082983;28;20667;-76
2021/04/05 00:53:40;;;;;;;20.75;9.80;;;;;;;2.55;71.05;99998.31;5081757;28;20123;-76
2021/04/05 00:56:07;;;;;;;19.15;9.40;;;;;;;2.56;70.98;99987.03;5065866;28;20032;-76
2021/04/05 00:58:33;;;;;;;20.77;9.80;;;;;;;2.56;71.04;99976.63;5085212;28;20047;-76
2021/04/05 01:01:01;;;;;;;17.02;9.63;;;;;;;2.56;70.67;99975.75;5093486;28;20024;-76
2021/04/05 01:03:30;;;;;;;17.48;9.20;;;;;;;2.56;71.03;99970.53;5075497;28;20036;-75
2021/04/05 01:06:29;;;;;;;19.30;9.27;;;;;;;2.54;71.18;99956.59;5093463;28;20483;-76
2021/04/05 01:08:55;;;;;;;22.80;10.13;;;;;;;2.53;71.21;99947.91;5074433;28;20048;-75
2021/04/05 01:11:27;;;;;;;16.67;8.98;;;;;;;2.58;71.00;99942.78;5093332;28;20035;-75
2021/04/05 01:13:54;;;;;;;15.93;8.48;;;;;;;2.60;70.12;99936.75;5093417;28;20111;-75
2021/04/05 01:16:22;;;;;;;19.73;8.65;;;;;;;2.63;70.05;99934.19;5093084;28;20067;-75
2021/04/05 01:18:47;;;;;;;17.02;9.30;;;;;;;2.63;70.07;99928.97;5093072;28;20122;-76
2021/04/05 01:21:12;;;;;;;21.75;9.15;;;;;;;2.60;70.85;99918.50;5093048;28;20114;-75
2021/04/05 01:23:39;;;;;;;22.85;8.95;;;;;;;2.64;69.77;99912.47;5074905;28;20032;-75
2021/04/05 01:26:04;;;;;;;22.70;9.50;;;;;;;2.66;70.17;99903.84;5083190;28;20122;-75
2021/04/05 01:28:30;;;;;;;19.13;9.00;;;;;;;2.66;70.39;99903.84;5092975;28;20126;-75
2021/04/05 01:30:57;;;;;;;20.52;9.88;;;;;;;2.66;70.07;99906.44;5092993;28;20036;-75
2021/04/05 01:33:32;;;;;;;23.60;9.20;;;;;;;2.66;70.34;99899.50;5097314;28;20027;-75
2021/04/05 01:36:05;;;;;;;16.55;8.55;;;;;;;2.70;69.97;99884.78;5094830;28;20450;-75
2021/04/05 01:38:44;;;;;;;18.55;9.30;;;;;;;2.72;69.86;99873.50;5092748;28;20036;-75
2021/04/05 01:41:13;;;;;;;24.08;9.77;;;;;;;2.73;69.85;99864.88;5092583;28;20044;-75
2021/04/05 01:43:39;;;;;;;16.42;8.65;;;;;;;2.77;70.08;99855.34;5092749;28;20032;-75
2021/04/05 01:46:07;;;;;;;20.73;9.38;;;;;;;2.83;70.20;99847.66;5057526;28;20046;-75
2021/04/05 01:48:33;;;;;;;21.63;10.00;;;;;;;2.87;69.98;99852.03;5092472;28;20044;-75
2021/04/05 01:51:04;;;;;;;21.58;10.50;;;;;;;2.94;69.34;99851.25;5092518;28;20040;-75
2021/04/05 01:53:31;;;;;;;21.63;9.63;;;;;;;2.98;69.30;99847.81;5092561;28;20039;-75
2021/04/05 01:56:02;;;;;;;22.92;9.70;;;;;;;2.98;68.84;99840.00;5091455;28;20035;-76
2021/04/05 01:58:28;;;;;;;21.20;9.32;;;;;;;3.01;69.68;99834.88;5092327;28;20034;-75
2021/04/05 02:00:55;;;;;;;16.83;8.73;;;;;;;3.02;69.36;99830.50;5092369;28;20032;-75
2021/04/05 02:03:21;;;;;;;20.48;9.07;;;;;;;3.04;69.30;99824.47;5092298;28;20067;-75
2021/04/05 02:05:59;;;;;;;18.20;9.57;;;;;;;3.04;69.35;99827.06;5092099;28;20078;-75
2021/04/05 02:08:27;;;;;;;18.73;9.25;;;;;;;3.08;69.51;99808.00;5085165;28;20031;-74
2021/04/05 02:10:55;;;;;;;25.58;9.40;;;;;;;3.14;69.10;99801.97;5082569;28;20040;-75
2021/04/05 02:13:24;;;;;;;18.90;8.70;;;;;;;3.12;69.15;99795.88;5092146;28;20401;-75
2021/04/05 02:15:50;;;;;;;20.08;8.52;;;;;;;3.15;68.67;99774.19;5091832;28;20046;-75
2021/04/05 02:18:17;;;;;;;16.83;8.25;;;;;;;3.17;69.29;99764.63;5091978;28;20076;-75
2021/04/05 02:20:44;;;;;;;18.38;8.52;;;;;;;3.23;68.89;99751.69;5090446;28;20039;-75
2021/04/05 02:23:10;;;;;;;22.88;9.00;;;;;;;3.25;68.37;99749.97;5091622;28;21013;-75
2021/04/05 02:26:05;;;;;;;14.82;7.70;;;;;;;3.21;68.93;99738.59;5094243;28;20060;-75
2021/04/05 02:28:22;;;;;;;19.00;9.15;;;;;;;3.26;68.50;99736.06;5084213;28;20044;-74
2021/04/05 02:30:47;;;;;;;15.75;8.65;;;;;;;3.31;68.37;99729.16;5091777;28;20040;-75
2021/04/05 02:33:13;;;;;;;16.25;9.18;;;;;;;3.32;68.52;99720.47;5091699;28;20031;-75
2021/04/05 02:35:40;;;;;;;16.88;8.60;;;;;;;3.27;68.66;99717.84;5091571;28;20036;-75
2021/04/05 02:38:06;;;;;;;20.88;9.27;;;;;;;3.27;68.53;99707.41;5075985;28;20535;-75
2021/04/05 02:40:31;;;;;;;19.85;9.20;;;;;;;3.25;68.80;99703.91;5091708;28;20027;-76
2021/04/05 02:42:58;;;;;;;14.38;7.57;;;;;;;3.28;68.62;99703.06;5091502;28;20032;-76
2021/04/05 02:45:25;;;;;;;20.08;8.52;;;;;;;3.21;69.01;99691.69;5091415;28;20501;-76
2021/04/05 02:47:57;;;;;;;18.73;8.35;;;;;;;3.18;69.46;99677.75;5073244;28;20504;-76
2021/04/05 02:50:26;;;;;;;21.50;8.43;;;;;;;3.14;69.06;99668.13;5091435;28;20394;-75
2021/04/05 02:52:53;;;;;;;19.95;9.60;;;;;;;3.16;69.18;99671.63;5073518;28;20080;-75
2021/04/05 02:55:19;;;;;;;16.33;8.20;;;;;;;3.22;69.53;99662.16;5091239;28;20043;-76
2021/04/05 02:57:45;;;;;;;17.75;8.77;;;;;;;3.25;69.51;99661.31;5091403;28;20032;-76
2021/04/05 03:00:16;;;;;;;21.85;7.78;;;;;;;3.28;69.95;99656.13;5091320;28;20044;-76
2021/04/05 03:02:43;;;;;;;15.98;7.90;;;;;;;3.35;69.62;99647.47;5091467;28;20040;-76
2021/04/05 03:05:11;;;;;;;16.23;8.32;;;;;;;3.38;69.75;99631.88;5088149;28;20051;-77
2021/04/05 03:07:36;;;;;;;20.60;7.63;;;;;;;3.43;69.57;99619.72;5090894;28;20099;-76
2021/04/05 03:10:08;;;;;;;25.58;9.00;;;;;;;3.50;69.57;99618.03;5073152;28;20135;-76
2021/04/05 03:12:38;;;;;;;19.98;8.60;;;;;;;3.54;69.38;99617.22;5073142;28;20031;-76
2021/04/05 03:15:08;;;;;;;22.48;9.15;;;;;;;3.60;69.17;99608.53;5091068;28;20123;-76
2021/04/05 03:17:35;;;;;;;23.00;8.65;;;;;;;3.62;69.23;99601.63;5073321;28;20076;-76
2021/04/05 03:20:23;;;;;;;20.20;9.05;;;;;;;3.60;69.00;99593.75;5073033;28;20047;-76
2021/04/05 03:22:50;;;;;;;22.00;9.07;;;;;;;3.59;69.15;99575.47;5072632;28;20599;-76
2021/04/05 03:25:21;;;;;;;19.60;8.43;;;;;;;3.66;68.97;99579.88;5082631;28;20131;-77
2021/04/05 03:27:49;;;;;;;20.95;9.02;;;;;;;3.68;68.73;99572.94;5072828;28;20032;-76
2021/04/05 03:30:20;;;;;;;17.88;8.48;;;;;;;3.71;68.98;99559.91;5091021;28;20035;-76
2021/04/05 03:32:50;;;;;;;25.27;10.00;;;;;;;3.74;68.88;99557.31;5073079;28;20032;-76
2021/04/05 03:35:30;;;;;;;19.45;8.10;;;;;;;3.81;68.88;99545.19;5061286;28;20032;-76
2021/04/05 03:37:57;;;;;;;20.10;8.70;;;;;;;3.84;68.66;99551.28;5088276;28;20097;-76
2021/04/05 03:40:23;;;;;;;19.88;9.15;;;;;;;3.86;69.15;99536.50;5091069;28;20036;-76
2021/04/05 03:43:02;;;;;;;22.58;9.75;;;;;;;3.91;68.61;99534.78;5075416;28;20039;-76
2021/04/05 03:45:35;;;;;;;17.90;8.20;;;;;;;3.97;68.55;99533.94;5084218;28;20042;-76
2021/04/05 03:48:06;;;;;;;27.70;10.32;;;;;;;4.09;68.47;99522.69;5072754;28;20040;-76
2021/04/05 03:50:37;;;;;;;18.33;8.45;;;;;;;4.15;67.90;99522.69;5091022;28;20028;-76
2021/04/05 03:53:28;;;;;;;22.35;8.90;;;;;;;4.17;67.59;99526.19;5091264;28;20036;-76
2021/04/05 03:56:01;;;;;;;28.23;9.77;;;;;;;4.22;67.86;99518.34;5090735;28;20070;-76
2021/04/05 03:58:30;;;;;;;19.77;8.57;;;;;;;4.24;67.60;99512.28;5072822;28;20036;-76
2021/04/05 04:01:02;;;;;;;23.15;9.52;;;;;;;4.29;67.01;99504.47;5090933;28;20055;-76
2021/04/05 04:03:43;;;;;;;18.75;9.23;;;;;;;4.32;67.01;99507.97;5091057;28;20036;-76
2021/04/05 04:06:11;;;;;;;21.83;8.75;;;;;;;4.40;66.91;99500.13;5072622;28;20057;-76
2021/04/05 04:08:41;;;;;;;18.48;8.10;;;;;;;4.44;66.44;99487.97;5090785;28;20104;-76
2021/04/05 04:11:09;;;;;;;19.90;9.57;;;;;;;4.46;66.52;99483.63;5072796;28;20123;-77
2021/04/05 04:13:39;;;;;;;19.75;9.35;;;;;;;4.43;66.60;99480.97;5072686;28;20043;-76
2021/04/05 04:16:06;;;;;;;26.02;9.88;;;;;;;4.46;66.14;99467.94;5090410;28;20126;-77
2021/04/05 04:18:32;;;;;;;21.52;9.30;;;;;;;4.53;65.76;99467.06;5090587;28;20119;-76
2021/04/05 04:20:58;;;;;;;22.48;9.45;;;;;;;4.57;66.10;99466.19;5094155;28;20122;-76
2021/04/05 04:23:24;;;;;;;21.95;9.52;;;;;;;4.58;65.91;99460.09;5094370;28;20057;-76
2021/04/05 04:25:52;;;;;;;18.52;9.13;;;;;;;4.57;65.33;99459.22;5094018;28;20043;-76
2021/04/05 04:28:17;;;;;;;20.48;9.18;;;;;;;4.67;65.30;99443.56;5064695;28;20505;-76
2021/04/05 04:30:42;;;;;;;24.23;9.95;;;;;;;4.72;65.05;99429.63;5089632;28;20115;-76
2021/04/05 04:33:10;;;;;;;27.55;10.23;;;;;;;4.75;64.78;99423.53;5091056;28;20410;-76
2021/04/05 04:35:38;;;;;;;21.50;9.18;;;;;;;4.81;64.87;99421.75;5069349;28;20071;-76
2021/04/05 04:38:04;;;;;;;24.88;10.27;;;;;;;4.88;64.19;99421.78;5085473;28;20035;-77
2021/04/05 04:40:32;;;;;;;25.30;10.48;;;;;;;4.92;64.02;99433.97;5087859;28;20079;-76
2021/04/05 04:43:00;;;;;;;20.55;9.48;;;;;;;4.99;63.73;99415.66;5093413;28;20391;-76
2021/04/05 04:45:26;;;;;;;21.02;9.63;;;;;;;5.08;63.17;99417.38;5092611;28;20115;-75
2021/04/05 04:47:55;;;;;;;19.00;9.70;;;;;;;5.11;62.62;99416.50;5075436;28;20061;-76
2021/04/05 04:50:21;;;;;;;23.17;9.73;;;;;;;5.17;62.65;99412.13;5079484;28;20516;-76
2021/04/05 04:52:47;;;;;;;25.08;9.82;;;;;;;5.27;62.03;99408.63;5089697;28;20082;-76
2021/04/05 04:55:13;;;;;;;17.58;9.48;;;;;;;5.34;61.92;99403.34;5092435;28;20032;-75
2021/04/05 04:57:38;;;;;;;22.83;9.93;;;;;;;5.44;61.57;99387.63;5088453;28;20075;-75
2021/04/05 05:00:05;;;;;;;24.88;10.27;;;;;;;5.46;61.28;99391.13;5072276;28;20041;-76
2021/04/05 05:02:32;;;;;;;26.33;10.00;;;;;;;5.52;61.12;99384.97;5093295;28;20047;-76
2021/04/05 05:04:59;;;;;;;25.80;10.40;;;;;;;5.57;61.27;99377.97;5092664;28;20400;-76
2021/04/05 05:07:26;;;;;;;26.23;10.10;;;;;;;5.60;61.33;99372.72;5070834;28;20417;-76
2021/04/05 05:09:51;;;;;;;25.98;10.63;;;;;;;5.68;60.95;99384.03;5092426;28;20032;-76
2021/04/05 05:12:17;;;;;;;22.17;11.00;;;;;;;5.70;60.62;99390.13;5075220;28;20028;-76
2021/04/05 05:14:43;;;;;;;28.70;10.30;;;;;;;5.73;60.61;99381.38;5092651;28;20548;-76
2021/04/05 05:17:10;;;;;;;20.98;10.07;;;;;;;5.81;60.80;99383.97;5092823;28;20032;-76
2021/04/05 05:19:39;;;;;;;21.08;10.50;;;;;;;5.83;60.88;99374.38;5092862;28;20044;-76
2021/04/05 05:22:08;;;;;;;24.73;11.35;;;;;;;5.87;60.55;99353.41;5092876;28;20039;-76
2021/04/05 05:24:36;;;;;;;23.45;10.80;;;;;;;5.87;60.16;99345.53;5091395;28;20043;-76
2021/04/05 05:27:02;;;;;;;25.58;10.38;;;;;;;5.92;60.04;99350.72;5074191;28;20028;-76
2021/04/05 05:29:28;;;;;;;22.67;11.13;;;;;;;5.93;60.32;99342.00;5074818;28;20468;-76
2021/04/05 05:31:54;;;;;;;23.15;11.18;;;;;;;6.00;60.59;99341.13;5074599;28;20024;-76
2021/04/05 05:34:21;;;;;;;29.20;11.05;;;;;;;5.98;60.69;99332.41;5074523;28;20044;-76
2021/04/05 05:36:48;;;;;;;23.13;11.23;;;;;;;6.05;60.65;99328.88;5092795;28;20035;-76
2021/04/05 05:39:15;;;;;;;23.75;11.45;;;;;;;6.07;60.59;99318.38;5092629;28;20040;-76
2021/04/05 05:42:02;;;;;;;26.27;11.45;;;;;;;6.09;60.17;99309.63;5094917;28;20031;-76
2021/04/05 05:44:43;;;;;;;23.88;11.65;;;;;;;6.18;60.27;99307.81;5081267;28;20028;-76
2021/04/05 05:47:31;;;;;;;23.52;10.95;;;;;;;6.17;60.18;99300.84;5073582;28;20059;-76
2021/04/05 05:50:38;;;;;;;22.80;11.43;;;;;;;6.20;60.62;99301.69;5074141;28;20040;-76
2021/04/05 05:53:31;;;;;;;23.98;11.35;;;;;;;6.27;60.12;99281.56;5006651;28;20169;-76
2021/04/05 05:56:23;;;;;;;28.90;12.15;;;;;;;6.36;59.90;99294.56;5076260;28;20054;-75
2021/04/05 05:59:00;;;;;;;28.42;11.93;;;;;;;6.48;60.23;99278.72;5094262;28;20036;-76
2021/04/05 06:01:34;;;;;;;24.15;11.82;;;;;;;6.58;59.85;99284.75;5086491;28;20040;-75
2021/04/05 06:04:11;;;;;;;24.38;12.40;;;;;;;6.67;59.25;99284.66;5092223;28;20114;-76
2021/04/05 06:06:49;;;;;;;22.15;12.18;;;;;;;6.76;58.96;99294.19;5073707;28;20118;-76
2021/04/05 06:09:31;;;;;;;20.15;11.25;;;;;;;6.78;58.99;99290.63;5091949;28;20081;-77
2021/04/05 06:12:14;;;;;;;22.60;12.02;;;;;;;6.90;58.58;99289.66;5092158;28;20036;-77
2021/04/05 06:14:57;;;;;;;24.52;12.82;;;;;;;6.84;58.87;99289.72;5092109;28;20512;-76
2021/04/05 06:17:31;;;;;;;25.55;11.65;;;;;;;6.83;59.25;99282.72;5084347;28;20093;-76
2021/04/05 06:20:18;;;;;;;25.63;12.30;;;;;;;6.84;58.46;99284.50;5076062;28;20042;-76
2021/04/05 06:23:12;;;;;;;28.02;13.02;;;;;;;6.80;58.94;99294.13;5091723;28;20455;-76
2021/04/05 06:26:08;;;;;;;22.98;13.07;;;;;;;6.84;58.72;99289.72;5087966;28;20047;-76
2021/04/05 06:28:38;;;;;;;22.30;11.95;;;;;;;6.86;58.53;99280.06;5080948;28;20016;-76
2021/04/05 06:31:04;;;;;;;22.30;11.70;;;;;;;6.95;58.82;99273.88;5066833;28;20042;-76
2021/04/05 06:33:35;;;;;;;22.00;11.95;;;;;;;7.00;58.56;99278.19;5084658;28;20111;-76
2021/04/05 06:36:12;;;;;;;22.52;11.15;;;;;;;7.08;58.37;99274.59;5084276;28;20037;-76
2021/04/05 06:38:48;;;;;;;28.13;12.40;;;;;;;7.10;57.94;99270.19;5081263;28;20047;-76
2021/04/05 06:41:37;;;;;;;26.25;12.35;;;;;;;7.13;57.93;99271.03;5088006;28;20038;-76
2021/04/05 06:44:45;;;;;;;24.55;12.18;;;;;;;7.21;57.75;99258.69;5073290;28;20079;-76
2021/04/05 06:47:33;;;;;;;24.02;11.45;;;;;;;7.31;57.83;99254.19;5091188;28;20040;-76
2021/04/05 06:50:26;;;;;;;23.20;11.43;;;;;;;7.46;56.65;99243.44;5075570;28;20157;-76
2021/04/05 06:53:11;;;;;;;27.08;12.02;;;;;;;7.51;56.16;99250.41;5089929;28;20039;-76
2021/04/05 06:55:57;;;;;;;23.23;12.40;;;;;;;7.64;55.88;99242.31;5081475;28;20063;-76
2021/04/05 06:58:25;;;;;;;24.58;11.32;;;;;;;7.76;55.69;99224.66;5083899;28;20028;-75
2021/04/05 07:01:23;;;;;;;27.45;12.77;;;;;;;7.87;55.29;99223.59;5081535;28;20089;-75
2021/04/05 07:04:13;;;;;;;23.63;10.80;;;;;;;8.07;54.73;99225.03;5091285;28;20107;-75
2021/04/05 07:06:53;;;;;;;23.70;11.02;;;;;;;8.17;54.66;99209.94;5085819;28;20089;-75
2021/04/05 07:09:42;;;;;;;21.88;11.43;;;;;;;8.24;54.24;99201.94;5083165;28;20044;-77
2021/04/05 07:12:35;;;;;;;22.10;10.45;;;;;;;8.22;53.57;99208.97;5091151;28;20028;-75
2021/04/05 07:15:10;;;;;;;22.83;11.50;;;;;;;8.25;54.04;99195.81;5072685;28;20036;-76
2021/04/05 07:18:13;;;;;;;21.33;10.82;;;;;;;8.27;53.16;99164.22;5081206;28;20055;-75
2021/04/05 07:21:07;;;;;;;25.65;11.27;;;;;;;8.33;53.38;99175.50;5087749;28;20028;-76
2021/04/05 07:23:42;;;;;;;25.38;11.60;;;;;;;8.39;53.23;99169.28;5084777;28;20039;-76
2021/04/05 07:26:20;;;;;;;22.73;11.20;;;;;;;8.60;52.80;99152.22;5090661;28;20040;-76
2021/04/05 07:28:54;;;;;;;22.75;11.27;;;;;;;8.77;53.16;99149.22;5090828;28;20057;-76
2021/04/05 07:31:37;;;;;;;21.35;10.48;;;;;;;8.80;51.94;99148.31;5083128;28;20425;-75
2021/04/05 07:34:32;;;;;;;28.02;11.57;;;;;;;8.84;52.05;99144.72;5090797;28;20032;-75
2021/04/05 07:37:24;;;;;;;20.05;10.82;;;;;;;8.99;51.73;99134.72;5067495;28;20421;-76
2021/04/05 07:40:02;;;;;;;20.08;10.73;;;;;;;9.06;51.33;99130.19;5091734;28;20043;-75
2021/04/05 07:42:44;;;;;;;18.80;10.02;;;;;;;9.22;51.19;99125.44;5083951;28;20047;-75
2021/04/05 07:45:16;;;;;;;20.73;11.40;;;;;;;9.47;50.35;99123.09;5090692;28;20035;-75
2021/04/05 07:48:00;;;;;;;21.90;11.68;;;;;;;9.49;50.02;99113.41;5090658;28;20032;-74
2021/04/05 07:50:45;;;;;;;19.92;11.07;;;;;;;9.55;49.26;99134.31;5085680;28;20044;-75
2021/04/05 07:53:20;;;;;;;21.70;10.80;;;;;;;9.60;49.47;99100.81;5072649;28;20040;-75
2021/04/05 07:55:47;;;;;;;28.50;12.48;;;;;;;9.64;49.56;99091.94;5095344;28;20062;-76
2021/04/05 07:58:20;;;;;;;27.20;12.88;;;;;;;9.63;49.38;99095.47;5076357;28;20063;-76
2021/04/05 08:00:50;;;;;;;21.80;11.77;;;;;;;9.58;49.13;99099.97;5093699;28;20122;-76
2021/04/05 08:03:35;;;;;;;27.77;12.02;;;;;;;9.49;49.06;99094.97;5089399;28;20075;-77
2021/04/05 08:06:04;;;;;;;22.77;11.40;;;;;;;9.58;49.59;99083.31;5075423;28;20064;-76
2021/04/05 08:08:40;;;;;;;20.67;11.52;;;;;;;9.51;49.78;99068.56;5092947;28;20066;-76
2021/04/05 08:11:20;;;;;;;21.77;11.82;;;;;;;9.66;49.26;99074.31;5074771;28;20024;-75
2021/04/05 08:14:33;;;;;;;22.95;11.02;;;;;;;9.72;48.86;99068.03;5094134;28;20504;-75
2021/04/05 08:17:26;;;;;;;26.05;12.80;;;;;;;9.68;48.62;99050.56;5071675;28;20516;-74
2021/04/05 08:20:09;;;;;;;22.55;12.32;;;;;;;9.80;48.45;99067.84;5075712;28;20028;-75
2021/04/05 08:22:53;;;;;;;23.52;11.50;;;;;;;9.70;49.18;99048.78;5076210;28;20036;-74
2021/04/05 08:26:21;;;;;;;24.02;12.15;;;;;;;9.84;48.58;99070.34;5067825;28;20432;-75
2021/04/05 08:28:24;;;;;;;21.70;12.57;;;;;;;9.76;48.97;99037.19;5080310;28;20048;-75
2021/04/05 08:31:18;;;;;;;22.55;12.90;;;;;;;9.86;48.85;99033.41;5094022;28;20039;-74
2021/04/05 08:33:56;;;;;;;25.00;12.98;;;;;;;9.78;49.28;99020.44;5089631;28;20082;-74
2021/04/05 08:36:43;;;;;;;27.95;12.52;;;;;;;9.92;49.55;99027.97;5064649;28;20032;-74
2021/04/05 08:39:13;;;;;;;21.58;12.35;;;;;;;9.93;49.93;99031.47;5092847;28;20051;-75
2021/04/05 08:42:26;;;;;;;25.52;12.43;;;;;;;9.77;48.89;99023.13;5093776;28;20500;-75
2021/04/05 08:44:54;;;;;;;24.48;12.93;;;;;;;9.77;49.78;99041.56;5050435;28;20513;-75
2021/04/05 08:47:27;;;;;;;21.40;12.35;;;;;;;9.80;49.60;99038.88;5093836;28;20125;-75
2021/04/05 08:49:56;;;;;;;20.88;12.63;;;;;;;9.68;49.84;99050.56;5092954;28;20032;-74
2021/04/05 08:52:25;;;;;;;21.55;12.38;;;;;;;9.56;50.23;99035.06;5093527;28;20032;-74
2021/04/05 08:54:53;;;;;;;27.00;13.73;;;;;;;9.52;49.67;99043.97;5093559;28;20126;-74
2021/04/05 08:57:31;;;;;;;23.67;12.00;;;;;;;9.55;50.55;99039.50;5085230;28;20036;-74
2021/04/05 09:00:11;;;;;;;21.27;12.15;;;;;;;9.42;50.55;99043.34;5093486;28;20505;-74
2021/04/05 09:02:39;;;;;;;27.40;13.13;;;;;;;9.39;50.63;99027.63;5093307;28;20124;-75
2021/04/05 09:05:12;;;;;;;22.40;12.85;;;;;;;9.40;50.96;99024.94;5074631;28;20502;-74
2021/04/05 09:08:02;;;;;;;23.10;12.15;;;;;;;9.37;51.35;99027.66;5091265;28;20524;-75
2021/04/05 09:10:31;;;;;;;22.30;11.70;;;;;;;9.35;50.87;99031.22;5063817;28;20042;-75
2021/04/05 09:12:59;;;;;;;23.52;12.38;;;;;;;9.28;51.52;99038.44;5063441;28;20098;-73
2021/04/05 09:15:27;;;;;;;22.98;12.15;;;;;;;9.33;52.14;99038.31;5082229;28;20414;-73
2021/04/05 09:18:12;;;;;;;24.98;11.80;;;;;;;9.23;52.33;99042.09;5090347;28;20044;-75
2021/04/05 09:20:54;;;;;;;21.75;13.38;;;;;;;8.95;53.00;99034.84;5093144;28;20032;-74
2021/04/05 09:23:38;;;;;;;22.45;12.55;;;;;;;8.81;55.48;99029.03;5063805;28;20047;-75
2021/04/05 09:26:35;;;;;;;25.25;12.38;;;;;;;8.65;56.73;99018.00;5090980;28;20509;-74
2021/04/05 09:29:22;;;;;;;24.20;13.38;;;;;;;8.58;57.80;99014.63;5092757;28;20043;-74
2021/04/05 09:32:05;;;;;;;25.90;13.25;;;;;;;8.42;57.78;99021.13;5092888;28;20516;-74
2021/04/05 09:34:59;;;;;;;24.35;14.65;;;;;;;8.17;59.26;99026.84;5065062;28;20047;-74
2021/04/05 09:37:36;;;;;;;23.77;13.48;;;;;;;7.88;60.88;99051.94;5069950;28;20032;-74
2021/04/05 09:40:35;;;;;;;22.15;13.02;;;;;;;7.81;62.45;99029.34;5096858;28;20032;-73
2021/04/05 09:43:35;;;;;;;28.23;14.25;;;;;;;7.64;64.54;99027.00;5092798;28;20035;-74
2021/04/05 09:46:23;;;;;;;24.83;14.63;;;;;;;7.46;66.40;99008.97;5090302;28;20036;-75
2021/04/05 09:49:26;;;;;;;29.80;14.43;;;;;;;7.22;68.43;99041.75;5092124;28;20046;-74
2021/04/05 09:52:29;;;;;;;28.58;16.02;;;;;;;7.10;68.48;99024.47;5083664;28;20047;-74
2021/04/05 09:55:46;;;;;;;28.00;15.80;;;;;;;6.87;70.53;99048.41;5092158;28;20036;-75
2021/04/05 09:58:23;;;;;;;26.23;15.73;;;;;;;6.75;71.91;99043.34;5089256;28;20460;-74
2021/04/05 10:00:55;;;;;;;34.67;17.23;;;;;;;6.72;71.91;99038.16;5074015;28;20032;-75
2021/04/05 10:03:21;;;;;;;27.35;16.92;;;;;;;6.67;72.79;99039.97;5066458;28;20093;-75
2021/04/05 10:05:49;;;;;;;27.48;16.33;;;;;;;6.70;73.62;99035.53;5091815;28;20516;-74
2021/04/05 10:08:26;;;;;;;31.85;16.67;;;;;;;6.75;74.61;99020.59;5073663;28;20024;-75
2021/04/05 10:10:54;;;;;;;30.75;17.00;;;;;;;6.85;75.28;99016.09;5091925;28;20051;-74
2021/04/05 10:13:26;;;;;;;31.90;17.00;;;;;;;6.87;75.47;99016.94;5092004;28;20047;-75
2021/04/05 10:15:53;;;;;;;30.20;16.93;;;;;;;6.84;75.07;99014.38;5091717;28;20032;-75
2021/04/05 10:18:19;;;;;;;28.98;17.30;;;;;;;6.73;76.40;99024.13;5073256;28;20398;-75
2021/04/05 10:20:52;;;;;;;32.22;17.55;;;;;;;6.71;76.35;99028.56;5091567;28;20115;-74
2021/04/05 10:23:21;;;;;;;33.20;18.35;;;;;;;6.68;76.52;99031.19;5083848;28;20075;-74
2021/04/05 10:25:52;;;;;;;35.60;18.05;;;;;;;6.62;76.73;99015.56;5091399;28;20042;-73
2021/04/05 10:28:19;;;;;;;33.92;20.17;;;;;;;6.52;76.38;99028.81;5062771;28;20098;-73
2021/04/05 10:30:50;;;;;;;33.47;19.77;;;;;;;6.42;77.61;99032.44;5087192;28;20093;-73
2021/04/05 10:33:17;;;;;;;32.40;18.13;;;;;;;6.31;78.14;99018.59;5073249;28;20501;-74
2021/04/05 10:35:48;;;;;;;30.20;18.85;;;;;;;6.27;79.11;99019.53;5091345;28;20032;-71
2021/04/05 10:38:18;;;;;;;33.35;17.65;;;;;;;6.28;79.47;99026.50;5073385;28;20040;-73
2021/04/05 10:40:43;;;;;;;31.92;17.23;;;;;;;6.22;79.63;99034.44;5073235;28;20524;-73
2021/04/05 10:43:17;;;;;;;30.90;17.95;;;;;;;6.14;80.32;99024.94;5094934;28;20118;-73
2021/04/05 10:45:46;;;;;;;35.75;18.13;;;;;;;6.16;79.91;99017.06;5091087;28;20052;-72
2021/04/05 10:48:19;;;;;;;32.90;18.55;;;;;;;6.21;80.69;99016.97;5073091;28;20031;-72
2021/04/05 10:50:53;;;;;;;29.67;18.05;;;;;;;6.24;81.54;99019.59;5073040;28;20036;-73
2021/04/05 10:53:21;;;;;;;30.75;16.85;;;;;;;6.31;80.35;99013.34;5083316;28;20035;-74
2021/04/05 10:56:02;;;;;;;29.90;17.10;;;;;;;6.35;80.32;99022.94;5091133;28;20499;-73
2021/04/05 10:58:32;;;;;;;25.08;14.00;;;;;;;6.31;80.02;99022.13;5067380;28;20047;-73
2021/04/05 11:01:03;;;;;;;28.50;15.80;;;;;;;6.30;80.28;99024.75;5091124;28;20100;-72
2021/04/05 11:03:31;;;;;;;22.88;12.82;;;;;;;6.26;79.44;99041.38;5091312;28;20032;-73
2021/04/05 11:06:00;;;;;;;23.90;13.77;;;;;;;6.17;80.07;99015.31;5090993;28;20510;-73
2021/04/05 11:08:33;;;;;;;22.30;12.38;;;;;;;6.14;79.98;99030.16;5072944;28;20052;-73
2021/04/05 11:11:08;;;;;;;20.98;12.25;;;;;;;6.10;80.76;99007.53;5090988;28;20910;-73
2021/04/05 11:13:37;;;;;;;20.42;13.25;;;;;;;6.05;80.33;99009.34;5091115;28;20027;-74
2021/04/05 11:16:09;;;;;;;21.88;12.52;;;;;;;5.98;80.67;99049.56;5072619;28;20036;-73
2021/04/05 11:18:36;;;;;;;6.57;2.90;;;;;;;4.87;75.22;99158.59;5072887;28;20035;-74
2021/04/05 11:21:03;;;;;;;7.60;3.03;;;;;;;2.62;79.26;99121.41;5090763;28;20039;-75
2021/04/05 11:23:35;;;;;;;5.13;1.55;;;;;;;1.61;82.00;99120.88;5090869;28;20405;-74
2021/04/05 11:26:04;;;;;;;2.95;1.05;;;;;;;1.14;84.36;99166.38;5090678;28;20040;-73
2021/04/05 11:28:32;;;;;;;3.65;1.40;;;;;;;0.98;85.21;99143.72;5092395;28;20509;-76
2021/04/05 11:31:15;;;;;;;3.40;0.97;;;;;;;0.87;86.28;99147.06;5095141;28;20036;-75
2021/04/05 11:33:46;;;;;;;;;;;;;;;0.82;86.15;99147.88;5095389;28;20036;-74
2021/04/05 11:36:12;;;;;;;3.57;1.20;;;;;;;0.79;87.06;99160.84;5097550;28;19916;-74
2021/04/05 11:38:47;;;;;;;4.90;1.60;;;;;;;0.83;87.16;99150.47;5094814;28;20108;-73
2021/04/05 11:41:15;;;;;;;3.83;1.20;;;;;;;0.93;86.41;99164.44;5094882;28;20032;-73
2021/04/05 11:43:43;;;;;;;6.53;1.57;;;;;;;0.96;86.89;99172.25;5093337;28;20028;-73
2021/04/05 11:46:11;;;;;;;6.50;1.37;;;;;;;0.96;87.26;99174.00;5093150;28;20069;-73
2021/04/05 11:48:37;;;;;;;5.67;1.37;;;;;;;1.00;86.85;99175.78;5076499;28;20036;-73
2021/04/05 11:51:03;;;;;;;3.37;1.43;;;;;;;1.04;87.06;99177.53;5094517;28;20073;-73
2021/04/05 11:53:47;;;;;;;5.60;1.80;;;;;;;1.10;86.55;99180.19;5094717;28;20455;-75
2021/04/05 11:56:15;;;;;;;4.53;1.90;;;;;;;1.20;86.40;99174.25;5094362;28;20119;-75
2021/04/05 11:59:02;;;;;;;5.03;1.70;;;;;;;1.30;86.59;99177.81;5094250;28;20551;-75
2021/04/05 12:01:59;;;;;;;3.73;1.37;;;;;;;1.44;86.10;99178.81;5086609;28;20142;-75